sensor_id;sensor_type;location;lat;lon;timestamp;pressure;altitude;pressure_sealevel;temperature;humidity
34696;BME280;20918;51.138;17.370;2023-03-01T00:01:06;101624.23;;;-4.24;73.95
34696;BME280;20918;51.138;17.370;2023-03-01T00:04:07;101619.68;;;-4.21;73.76
34696;BME280;20918;51.138;17.370;2023-03-01T00:07:08;101624.01;;;-4.21;73.57
34696;BME280;20918;51.138;17.370;2023-03-01T00:10:08;101625.40;;;-4.21;73.75
34696;BME280;20918;51.138;17.370;2023-03-01T00:13:09;101622.30;;;-4.22;73.72
34696;BME280;20918;51.138;17.370;2023-03-01T00:16:11;101627.29;;;-4.21;73.72
34696;BME280;20918;51.138;17.370;2023-03-01T00:19:14;101623.45;;;-4.20;73.70
34696;BME280;20918;51.138;17.370;2023-03-01T00:22:14;101620.67;;;-4.19;73.89
34696;BME280;20918;51.138;17.370;2023-03-01T00:25:15;101614.61;;;-4.18;73.71
34696;BME280;20918;51.138;17.370;2023-03-01T00:28:15;101614.92;;;-4.17;73.58
34696;BME280;20918;51.138;17.370;2023-03-01T00:31:20;101612.22;;;-4.20;73.38
34696;BME280;20918;51.138;17.370;2023-03-01T00:34:21;101613.48;;;-4.22;73.57
34696;BME280;20918;51.138;17.370;2023-03-01T00:37:22;101612.42;;;-4.28;73.65
34696;BME280;20918;51.138;17.370;2023-03-01T00:40:26;101605.03;;;-4.38;73.70
34696;BME280;20918;51.138;17.370;2023-03-01T00:43:26;101591.66;;;-4.41;74.08
34696;BME280;20918;51.138;17.370;2023-03-01T00:46:27;101588.81;;;-4.39;74.59
34696;BME280;20918;51.138;17.370;2023-03-01T00:49:30;101586.83;;;-4.35;74.51
34696;BME280;20918;51.138;17.370;2023-03-01T00:52:30;101582.46;;;-4.33;74.36
34696;BME280;20918;51.138;17.370;2023-03-01T00:55:31;101585.65;;;-4.36;73.83
34696;BME280;20918;51.138;17.370;2023-03-01T00:58:31;101591.10;;;-4.40;74.02
34696;BME280;20918;51.138;17.370;2023-03-01T01:01:32;101589.05;;;-4.49;74.16
34696;BME280;20918;51.138;17.370;2023-03-01T01:04:33;101595.11;;;-4.57;74.17
34696;BME280;20918;51.138;17.370;2023-03-01T01:07:33;101595.45;;;-4.64;74.39
34696;BME280;20918;51.138;17.370;2023-03-01T01:10:38;101583.65;;;-4.70;74.21
34696;BME280;20918;51.138;17.370;2023-03-01T01:13:38;101574.91;;;-4.73;74.60
34696;BME280;20918;51.138;17.370;2023-03-01T01:16:40;101571.58;;;-4.70;74.85
34696;BME280;20918;51.138;17.370;2023-03-01T01:19:41;101569.34;;;-4.71;74.85
34696;BME280;20918;51.138;17.370;2023-03-01T01:22:41;101569.76;;;-4.73;74.77
34696;BME280;20918;51.138;17.370;2023-03-01T01:25:42;101570.32;;;-4.76;74.74
34696;BME280;20918;51.138;17.370;2023-03-01T01:28:42;101570.48;;;-4.76;74.65
34696;BME280;20918;51.138;17.370;2023-03-01T01:31:42;101574.45;;;-4.83;74.11
34696;BME280;20918;51.138;17.370;2023-03-01T01:34:43;101578.25;;;-4.91;74.56
34696;BME280;20918;51.138;17.370;2023-03-01T01:37:44;101580.49;;;-5.00;74.78
34696;BME280;20918;51.138;17.370;2023-03-01T01:40:45;101571.52;;;-5.08;74.86
34696;BME280;20918;51.138;17.370;2023-03-01T01:43:49;101566.19;;;-5.09;75.04
34696;BME280;20918;51.138;17.370;2023-03-01T01:46:53;101564.15;;;-5.10;75.12
34696;BME280;20918;51.138;17.370;2023-03-01T01:49:54;101554.33;;;-5.11;75.21
34696;BME280;20918;51.138;17.370;2023-03-01T01:52:55;101550.83;;;-5.09;75.33
34696;BME280;20918;51.138;17.370;2023-03-01T01:55:57;101551.14;;;-5.08;75.33
34696;BME280;20918;51.138;17.370;2023-03-01T01:58:59;101541.81;;;-5.07;75.23
34696;BME280;20918;51.138;17.370;2023-03-01T02:02:02;101545.34;;;-5.11;75.28
34696;BME280;20918;51.138;17.370;2023-03-01T02:05:09;101544.05;;;-5.15;75.04
34696;BME280;20918;51.138;17.370;2023-03-01T02:08:12;101540.99;;;-5.17;74.91
34696;BME280;20918;51.138;17.370;2023-03-01T02:11:13;101540.33;;;-5.19;74.87
34696;BME280;20918;51.138;17.370;2023-03-01T02:14:16;101544.52;;;-5.21;74.64
34696;BME280;20918;51.138;17.370;2023-03-01T02:17:17;101544.55;;;-5.23;75.21
34696;BME280;20918;51.138;17.370;2023-03-01T02:23:42;101559.80;;;-5.34;75.23
34696;BME280;20918;51.138;17.370;2023-03-01T02:26:45;101554.27;;;-5.42;75.56
34696;BME280;20918;51.138;17.370;2023-03-01T02:29:47;101556.36;;;-5.44;75.72
34696;BME280;20918;51.138;17.370;2023-03-01T02:32:48;101553.13;;;-5.47;75.86
34696;BME280;20918;51.138;17.370;2023-03-01T02:35:50;101549.45;;;-5.52;75.87
34696;BME280;20918;51.138;17.370;2023-03-01T02:38:53;101557.84;;;-5.58;75.80
34696;BME280;20918;51.138;17.370;2023-03-01T02:41:56;101554.60;;;-5.60;76.07
34696;BME280;20918;51.138;17.370;2023-03-01T02:44:59;101556.10;;;-5.56;76.21
34696;BME280;20918;51.138;17.370;2023-03-01T02:47:59;101557.08;;;-5.54;76.16
34696;BME280;20918;51.138;17.370;2023-03-01T02:57:20;101553.93;;;-5.52;75.87
34696;BME280;20918;51.138;17.370;2023-03-01T03:00:26;101557.48;;;-5.48;75.78
34696;BME280;20918;51.138;17.370;2023-03-01T03:03:28;101550.30;;;-5.43;76.12
34696;BME280;20918;51.138;17.370;2023-03-01T03:06:29;101541.90;;;-5.36;76.30
34696;BME280;20918;51.138;17.370;2023-03-01T03:09:29;101542.52;;;-5.32;76.27
34696;BME280;20918;51.138;17.370;2023-03-01T03:12:30;101547.13;;;-5.30;76.35
34696;BME280;20918;51.138;17.370;2023-03-01T03:15:31;101544.27;;;-5.33;76.13
34696;BME280;20918;51.138;17.370;2023-03-01T03:18:32;101546.68;;;-5.34;75.93
34696;BME280;20918;51.138;17.370;2023-03-01T03:21:32;101542.73;;;-5.34;75.89
34696;BME280;20918;51.138;17.370;2023-03-01T03:24:33;101542.54;;;-5.33;75.74
34696;BME280;20918;51.138;17.370;2023-03-01T03:27:38;101548.38;;;-5.32;75.91
34696;BME280;20918;51.138;17.370;2023-03-01T03:30:40;101543.20;;;-5.42;75.68
34696;BME280;20918;51.138;17.370;2023-03-01T03:33:41;101541.95;;;-5.56;75.67
34696;BME280;20918;51.138;17.370;2023-03-01T03:36:43;101536.09;;;-5.66;75.90
34696;BME280;20918;51.138;17.370;2023-03-01T03:39:44;101534.06;;;-5.68;76.13
34696;BME280;20918;51.138;17.370;2023-03-01T03:42:44;101533.09;;;-5.71;75.96
34696;BME280;20918;51.138;17.370;2023-03-01T03:45:45;101530.05;;;-5.74;75.92
34696;BME280;20918;51.138;17.370;2023-03-01T03:48:46;101529.20;;;-5.74;76.01
34696;BME280;20918;51.138;17.370;2023-03-01T03:51:47;101525.09;;;-5.77;76.03
34696;BME280;20918;51.138;17.370;2023-03-01T03:54:47;101520.27;;;-5.78;76.20
34696;BME280;20918;51.138;17.370;2023-03-01T03:57:48;101512.01;;;-5.78;76.27
34696;BME280;20918;51.138;17.370;2023-03-01T04:00:55;101513.20;;;-5.77;76.27
34696;BME280;20918;51.138;17.370;2023-03-01T04:03:56;101511.25;;;-5.73;76.25
34696;BME280;20918;51.138;17.370;2023-03-01T04:06:56;101512.39;;;-5.70;76.28
34696;BME280;20918;51.138;17.370;2023-03-01T04:09:57;101516.28;;;-5.67;76.45
34696;BME280;20918;51.138;17.370;2023-03-01T04:12:57;101516.43;;;-5.66;76.57
34696;BME280;20918;51.138;17.370;2023-03-01T04:15:58;101513.20;;;-5.68;76.03
34696;BME280;20918;51.138;17.370;2023-03-01T04:18:58;101513.14;;;-5.74;75.96
34696;BME280;20918;51.138;17.370;2023-03-01T04:22:00;101512.90;;;-5.79;76.14
34696;BME280;20918;51.138;17.370;2023-03-01T04:25:07;101513.27;;;-5.80;76.33
34696;BME280;20918;51.138;17.370;2023-03-01T04:28:08;101513.09;;;-5.80;76.49
34696;BME280;20918;51.138;17.370;2023-03-01T04:31:10;101512.55;;;-5.89;76.58
34696;BME280;20918;51.138;17.370;2023-03-01T04:34:15;101505.52;;;-5.91;76.72
34696;BME280;20918;51.138;17.370;2023-03-01T04:37:16;101508.63;;;-5.90;76.82
34696;BME280;20918;51.138;17.370;2023-03-01T04:40:16;101511.51;;;-5.88;76.98
34696;BME280;20918;51.138;17.370;2023-03-01T04:43:17;101506.84;;;-5.87;76.74
34696;BME280;20918;51.138;17.370;2023-03-01T04:46:18;101502.36;;;-5.88;76.60
34696;BME280;20918;51.138;17.370;2023-03-01T04:49:19;101498.39;;;-5.87;76.39
34696;BME280;20918;51.138;17.370;2023-03-01T04:52:19;101507.86;;;-5.87;76.44
34696;BME280;20918;51.138;17.370;2023-03-01T04:55:20;101510.95;;;-5.86;76.46
34696;BME280;20918;51.138;17.370;2023-03-01T04:58:22;101503.58;;;-5.88;76.20
34696;BME280;20918;51.138;17.370;2023-03-01T05:01:22;101509.06;;;-5.87;76.16
34696;BME280;20918;51.138;17.370;2023-03-01T05:04:23;101509.79;;;-5.89;75.95
34696;BME280;20918;51.138;17.370;2023-03-01T05:07:27;101511.85;;;-5.88;75.88
34696;BME280;20918;51.138;17.370;2023-03-01T05:10:28;101512.38;;;-5.89;75.87
34696;BME280;20918;51.138;17.370;2023-03-01T05:13:29;101513.41;;;-5.88;76.01
34696;BME280;20918;51.138;17.370;2023-03-01T05:16:30;101516.86;;;-5.88;76.18
34696;BME280;20918;51.138;17.370;2023-03-01T05:19:31;101518.92;;;-5.89;76.07
34696;BME280;20918;51.138;17.370;2023-03-01T05:22:32;101519.63;;;-5.89;76.07
34696;BME280;20918;51.138;17.370;2023-03-01T05:25:33;101518.76;;;-5.89;76.20
34696;BME280;20918;51.138;17.370;2023-03-01T05:28:34;101517.71;;;-5.88;76.36
34696;BME280;20918;51.138;17.370;2023-03-01T05:31:36;101508.57;;;-5.87;76.33
34696;BME280;20918;51.138;17.370;2023-03-01T05:34:40;101512.50;;;-5.86;76.40
34696;BME280;20918;51.138;17.370;2023-03-01T05:37:44;101511.84;;;-5.87;76.23
34696;BME280;20918;51.138;17.370;2023-03-01T05:40:46;101514.80;;;-5.90;76.14
34696;BME280;20918;51.138;17.370;2023-03-01T05:43:47;101514.31;;;-5.91;76.20
34696;BME280;20918;51.138;17.370;2023-03-01T05:46:47;101519.61;;;-5.89;76.63
34696;BME280;20918;51.138;17.370;2023-03-01T05:49:49;101519.19;;;-5.83;76.61
34696;BME280;20918;51.138;17.370;2023-03-01T05:52:51;101523.15;;;-5.75;76.66
34696;BME280;20918;51.138;17.370;2023-03-01T05:55:52;101525.77;;;-5.59;76.83
34696;BME280;20918;51.138;17.370;2023-03-01T05:58:53;101529.20;;;-5.40;76.86
34696;BME280;20918;51.138;17.370;2023-03-01T06:01:53;101524.83;;;-5.11;77.00
34696;BME280;20918;51.138;17.370;2023-03-01T06:04:55;101526.05;;;-4.80;76.85
34696;BME280;20918;51.138;17.370;2023-03-01T06:07:58;101523.84;;;-4.44;76.72
34696;BME280;20918;51.138;17.370;2023-03-01T06:10:59;101518.46;;;-4.02;76.92
34696;BME280;20918;51.138;17.370;2023-03-01T06:13:59;101515.48;;;-3.56;76.69
34696;BME280;20918;51.138;17.370;2023-03-01T06:17:02;101508.71;;;-3.18;76.07
34696;BME280;20918;51.138;17.370;2023-03-01T06:20:07;101505.77;;;-2.90;75.67
34696;BME280;20918;51.138;17.370;2023-03-01T06:23:08;101501.68;;;-2.48;76.29
34696;BME280;20918;51.138;17.370;2023-03-01T06:26:09;101494.78;;;-1.97;76.05
34696;BME280;20918;51.138;17.370;2023-03-01T06:29:09;101489.02;;;-1.42;75.92
34696;BME280;20918;51.138;17.370;2023-03-01T06:32:13;101484.53;;;-0.92;75.70
34696;BME280;20918;51.138;17.370;2023-03-01T06:35:14;101477.44;;;-0.45;75.25
34696;BME280;20918;51.138;17.370;2023-03-01T06:38:17;101477.30;;;0.04;74.93
34696;BME280;20918;51.138;17.370;2023-03-01T06:41:19;101482.62;;;0.41;74.07
34696;BME280;20918;51.138;17.370;2023-03-01T06:44:19;101482.71;;;0.70;73.41
34696;BME280;20918;51.138;17.370;2023-03-01T06:47:23;101479.22;;;1.04;73.20
34696;BME280;20918;51.138;17.370;2023-03-01T06:50:26;101488.20;;;1.42;72.94
34696;BME280;20918;51.138;17.370;2023-03-01T06:53:29;101488.91;;;1.52;71.55
34696;BME280;20918;51.138;17.370;2023-03-01T06:56:33;101488.20;;;1.63;71.79
34696;BME280;20918;51.138;17.370;2023-03-01T06:59:37;101491.66;;;2.03;71.54
34696;BME280;20918;51.138;17.370;2023-03-01T07:02:37;101491.22;;;2.24;70.55
34696;BME280;20918;51.138;17.370;2023-03-01T07:05:38;101498.02;;;2.25;69.91
34696;BME280;20918;51.138;17.370;2023-03-01T07:08:38;101495.17;;;2.46;70.44
34696;BME280;20918;51.138;17.370;2023-03-01T07:11:38;101489.29;;;2.90;70.40
34696;BME280;20918;51.138;17.370;2023-03-01T07:14:39;101480.85;;;3.26;69.85
34696;BME280;20918;51.138;17.370;2023-03-01T07:17:40;101479.39;;;3.64;69.65
34696;BME280;20918;51.138;17.370;2023-03-01T07:20:40;101487.55;;;3.89;68.63
34696;BME280;20918;51.138;17.370;2023-03-01T07:23:40;101487.23;;;3.97;68.17
34696;BME280;20918;51.138;17.370;2023-03-01T07:26:47;101488.91;;;4.10;67.62
34696;BME280;20918;51.138;17.370;2023-03-01T07:29:50;101491.99;;;4.23;67.12
34696;BME280;20918;51.138;17.370;2023-03-01T07:32:50;101485.20;;;4.48;67.18
34696;BME280;20918;51.138;17.370;2023-03-01T07:35:55;101482.04;;;4.77;66.46
34696;BME280;20918;51.138;17.370;2023-03-01T07:38:59;101477.48;;;4.93;66.25
34696;BME280;20918;51.138;17.370;2023-03-01T07:42:02;101477.92;;;5.25;66.28
34696;BME280;20918;51.138;17.370;2023-03-01T07:45:03;101479.58;;;5.54;65.74
34696;BME280;20918;51.138;17.370;2023-03-01T07:48:04;101473.59;;;5.83;65.53
34696;BME280;20918;51.138;17.370;2023-03-01T07:51:05;101476.11;;;6.06;65.24
34696;BME280;20918;51.138;17.370;2023-03-01T07:54:06;101473.67;;;6.29;64.29
34696;BME280;20918;51.138;17.370;2023-03-01T07:57:06;101473.02;;;6.20;63.54
34696;BME280;20918;51.138;17.370;2023-03-01T08:00:07;101471.47;;;6.30;63.70
34696;BME280;20918;51.138;17.370;2023-03-01T08:03:13;101467.08;;;6.35;63.13
34696;BME280;20918;51.138;17.370;2023-03-01T08:06:17;101465.23;;;6.52;63.20
34696;BME280;20918;51.138;17.370;2023-03-01T08:09:18;101463.33;;;6.63;63.00
34696;BME280;20918;51.138;17.370;2023-03-01T08:12:18;101468.64;;;6.78;62.68
34696;BME280;20918;51.138;17.370;2023-03-01T08:15:19;101470.73;;;6.78;61.92
34696;BME280;20918;51.138;17.370;2023-03-01T08:18:20;101468.89;;;6.79;61.26
34696;BME280;20918;51.138;17.370;2023-03-01T08:21:23;101464.23;;;6.73;61.10
34696;BME280;20918;51.138;17.370;2023-03-01T08:24:24;101462.02;;;6.89;61.41
34696;BME280;20918;51.138;17.370;2023-03-01T08:27:24;101459.77;;;7.18;60.91
34696;BME280;20918;51.138;17.370;2023-03-01T08:30:25;101455.00;;;7.28;60.45
34696;BME280;20918;51.138;17.370;2023-03-01T08:33:25;101459.74;;;7.33;59.87
34696;BME280;20918;51.138;17.370;2023-03-01T08:36:27;101462.42;;;7.37;59.37
34696;BME280;20918;51.138;17.370;2023-03-01T08:39:29;101467.59;;;7.32;58.85
34696;BME280;20918;51.138;17.370;2023-03-01T08:42:29;101470.06;;;7.36;58.87
34696;BME280;20918;51.138;17.370;2023-03-01T08:45:30;101470.45;;;7.43;58.77
34696;BME280;20918;51.138;17.370;2023-03-01T08:48:30;101466.73;;;7.62;58.52
34696;BME280;20918;51.138;17.370;2023-03-01T08:51:34;101456.76;;;7.73;58.01
34696;BME280;20918;51.138;17.370;2023-03-01T08:54:36;101454.23;;;7.76;57.82
34696;BME280;20918;51.138;17.370;2023-03-01T08:57:40;101452.31;;;7.97;57.16
34696;BME280;20918;51.138;17.370;2023-03-01T09:00:42;101447.42;;;8.07;56.58
34696;BME280;20918;51.138;17.370;2023-03-01T09:03:45;101444.83;;;8.18;56.10
34696;BME280;20918;51.138;17.370;2023-03-01T09:06:46;101440.86;;;8.15;55.37
34696;BME280;20918;51.138;17.370;2023-03-01T09:09:46;101447.00;;;8.15;55.43
34696;BME280;20918;51.138;17.370;2023-03-01T09:12:50;101440.50;;;8.49;55.57
34696;BME280;20918;51.138;17.370;2023-03-01T09:15:51;101437.15;;;8.71;54.72
34696;BME280;20918;51.138;17.370;2023-03-01T09:18:53;101438.40;;;8.82;54.47
34696;BME280;20918;51.138;17.370;2023-03-01T09:21:56;101435.84;;;8.92;54.29
34696;BME280;20918;51.138;17.370;2023-03-01T09:24:58;101439.55;;;9.10;53.76
34696;BME280;20918;51.138;17.370;2023-03-01T09:27:59;101432.70;;;9.27;53.68
34696;BME280;20918;51.138;17.370;2023-03-01T09:31:00;101427.81;;;9.26;53.25
34696;BME280;20918;51.138;17.370;2023-03-01T09:34:01;101425.45;;;9.14;52.60
34696;BME280;20918;51.138;17.370;2023-03-01T09:37:04;101425.35;;;9.02;52.35
34696;BME280;20918;51.138;17.370;2023-03-01T09:40:05;101429.37;;;9.07;52.49
34696;BME280;20918;51.138;17.370;2023-03-01T09:43:08;101430.20;;;8.95;50.97
34696;BME280;20918;51.138;17.370;2023-03-01T09:46:16;101433.23;;;8.72;51.36
34696;BME280;20918;51.138;17.370;2023-03-01T09:55:40;101438.34;;;8.54;50.13
34696;BME280;20918;51.138;17.370;2023-03-01T10:02:03;101444.32;;;7.60;49.72
34696;BME280;20918;51.138;17.370;2023-03-01T10:08:53;101442.82;;;7.54;50.08
34696;BME280;20918;51.138;17.370;2023-03-01T10:11:52;101435.60;;;7.73;49.96
34696;BME280;20918;51.138;17.370;2023-03-01T10:14:57;101430.32;;;7.94;50.11
34696;BME280;20918;51.138;17.370;2023-03-01T10:18:01;101420.23;;;8.24;49.57
34696;BME280;20918;51.138;17.370;2023-03-01T10:21:13;101417.02;;;8.34;49.43
34696;BME280;20918;51.138;17.370;2023-03-01T10:24:15;101421.90;;;8.48;49.46
34696;BME280;20918;51.138;17.370;2023-03-01T10:30:48;101414.67;;;7.40;48.52
34696;BME280;20918;51.138;17.370;2023-03-01T10:33:49;101408.11;;;7.14;48.53
34696;BME280;20918;51.138;17.370;2023-03-01T10:37:01;101405.32;;;7.14;48.07
34696;BME280;20918;51.138;17.370;2023-03-01T10:40:10;101409.34;;;6.54;48.29
34696;BME280;20918;51.138;17.370;2023-03-01T10:43:11;101405.48;;;6.68;49.46
34696;BME280;20918;51.138;17.370;2023-03-01T10:49:52;101400.09;;;7.21;48.55
34696;BME280;20918;51.138;17.370;2023-03-01T10:53:03;101399.94;;;7.01;47.35
34696;BME280;20918;51.138;17.370;2023-03-01T10:56:11;101400.09;;;6.92;48.50
34696;BME280;20918;51.138;17.370;2023-03-01T10:59:22;101392.88;;;7.09;47.67
34696;BME280;20918;51.138;17.370;2023-03-01T11:02:29;101384.70;;;7.12;47.50
34696;BME280;20918;51.138;17.370;2023-03-01T11:05:32;101380.54;;;7.28;48.22
34696;BME280;20918;51.138;17.370;2023-03-01T11:11:37;101369.67;;;7.67;48.31
34696;BME280;20918;51.138;17.370;2023-03-01T11:14:46;101362.30;;;7.80;48.29
34696;BME280;20918;51.138;17.370;2023-03-01T11:17:47;101366.63;;;7.90;48.19
34696;BME280;20918;51.138;17.370;2023-03-01T11:20:47;101371.26;;;7.76;47.48
34696;BME280;20918;51.138;17.370;2023-03-01T11:23:49;101372.54;;;7.62;47.23
34696;BME280;20918;51.138;17.370;2023-03-01T11:26:53;101367.26;;;7.50;47.67
34696;BME280;20918;51.138;17.370;2023-03-01T11:30:05;101362.61;;;7.44;47.71
34696;BME280;20918;51.138;17.370;2023-03-01T11:36:34;101356.38;;;7.59;48.07
34696;BME280;20918;51.138;17.370;2023-03-01T11:39:40;101350.39;;;7.66;48.04
34696;BME280;20918;51.138;17.370;2023-03-01T11:45:52;101356.95;;;7.72;48.11
34696;BME280;20918;51.138;17.370;2023-03-01T12:14:46;101329.34;;;6.34;45.33
34696;BME280;20918;51.138;17.370;2023-03-01T12:17:57;101324.85;;;6.23;45.97
34696;BME280;20918;51.138;17.370;2023-03-01T12:24:33;101321.64;;;6.22;45.22
34696;BME280;20918;51.138;17.370;2023-03-01T12:30:46;101314.64;;;6.16;45.98
34696;BME280;20918;51.138;17.370;2023-03-01T12:33:57;101308.96;;;6.15;45.66
34696;BME280;20918;51.138;17.370;2023-03-01T12:53:26;101280.02;;;6.28;46.49
34696;BME280;20918;51.138;17.370;2023-03-01T12:56:31;101277.84;;;6.29;46.09
34696;BME280;20918;51.138;17.370;2023-03-01T12:59:37;101274.33;;;6.32;46.46
34696;BME280;20918;51.138;17.370;2023-03-01T13:02:45;101271.17;;;6.37;46.56
34696;BME280;20918;51.138;17.370;2023-03-01T13:06:01;101269.70;;;6.38;46.61
34696;BME280;20918;51.138;17.370;2023-03-01T13:09:27;101271.98;;;6.31;46.32
34696;BME280;20918;51.138;17.370;2023-03-01T13:15:50;101270.29;;;6.00;46.51
34696;BME280;20918;51.138;17.370;2023-03-01T13:19:13;101267.43;;;5.91;47.13
34696;BME280;20918;51.138;17.370;2023-03-01T13:22:25;101268.73;;;5.87;47.05
34696;BME280;20918;51.138;17.370;2023-03-01T13:25:28;101267.07;;;5.78;47.07
34696;BME280;20918;51.138;17.370;2023-03-01T13:34:41;101261.39;;;5.83;47.26
34696;BME280;20918;51.138;17.370;2023-03-01T13:37:42;101255.11;;;5.96;47.42
34696;BME280;20918;51.138;17.370;2023-03-01T13:40:56;101257.48;;;6.00;47.74
34696;BME280;20918;51.138;17.370;2023-03-01T13:43:57;101252.45;;;5.99;48.09
34696;BME280;20918;51.138;17.370;2023-03-01T13:50:15;101251.36;;;5.84;47.13
34696;BME280;20918;51.138;17.370;2023-03-01T13:53:17;101246.16;;;5.73;47.51
34696;BME280;20918;51.138;17.370;2023-03-01T13:56:28;101243.63;;;5.67;47.46
34696;BME280;20918;51.138;17.370;2023-03-01T13:59:36;101236.20;;;5.57;47.80
34696;BME280;20918;51.138;17.370;2023-03-01T14:02:58;101233.81;;;5.57;47.70
34696;BME280;20918;51.138;17.370;2023-03-01T14:09:01;101220.69;;;5.51;48.05
34696;BME280;20918;51.138;17.370;2023-03-01T14:12:18;101217.48;;;5.52;48.42
34696;BME280;20918;51.138;17.370;2023-03-01T14:15:29;101216.45;;;5.49;48.02
34696;BME280;20918;51.138;17.370;2023-03-01T14:21:38;101203.98;;;5.61;48.71
34696;BME280;20918;51.138;17.370;2023-03-01T14:24:40;101200.44;;;5.62;48.31
34696;BME280;20918;51.138;17.370;2023-03-01T14:27:44;101195.66;;;5.48;48.04
34696;BME280;20918;51.138;17.370;2023-03-01T14:30:51;101192.13;;;5.35;48.35
34696;BME280;20918;51.138;17.370;2023-03-01T14:33:55;101192.41;;;5.36;48.53
34696;BME280;20918;51.138;17.370;2023-03-01T14:36:56;101190.59;;;5.34;48.55
34696;BME280;20918;51.138;17.370;2023-03-01T14:39:57;101182.16;;;5.32;48.93
34696;BME280;20918;51.138;17.370;2023-03-01T14:42:59;101177.04;;;5.33;48.90
34696;BME280;20918;51.138;17.370;2023-03-01T14:46:00;101174.98;;;5.34;48.90
34696;BME280;20918;51.138;17.370;2023-03-01T14:49:01;101172.30;;;5.40;49.05
34696;BME280;20918;51.138;17.370;2023-03-01T14:52:04;101173.73;;;5.43;49.06
34696;BME280;20918;51.138;17.370;2023-03-01T14:58:37;101173.78;;;5.26;49.06
34696;BME280;20918;51.138;17.370;2023-03-01T15:01:38;101168.86;;;5.19;49.19
34696;BME280;20918;51.138;17.370;2023-03-01T15:04:39;101163.51;;;5.18;49.27
34696;BME280;20918;51.138;17.370;2023-03-01T15:07:40;101165.24;;;5.21;49.34
34696;BME280;20918;51.138;17.370;2023-03-01T15:10:54;101165.96;;;5.20;49.49
34696;BME280;20918;51.138;17.370;2023-03-01T15:13:56;101168.68;;;5.19;49.55
34696;BME280;20918;51.138;17.370;2023-03-01T15:16:57;101170.48;;;5.21;49.37
34696;BME280;20918;51.138;17.370;2023-03-01T15:19:58;101176.46;;;5.16;49.68
34696;BME280;20918;51.138;17.370;2023-03-01T15:23:02;101173.73;;;5.07;49.40
34696;BME280;20918;51.138;17.370;2023-03-01T15:26:06;101167.89;;;5.00;49.44
34696;BME280;20918;51.138;17.370;2023-03-01T15:29:24;101171.66;;;4.91;49.63
34696;BME280;20918;51.138;17.370;2023-03-01T15:35:40;101168.21;;;4.75;49.82
34696;BME280;20918;51.138;17.370;2023-03-01T15:38:55;101168.03;;;4.69;49.46
34696;BME280;20918;51.138;17.370;2023-03-01T15:41:57;101171.83;;;4.63;49.57
34696;BME280;20918;51.138;17.370;2023-03-01T15:45:11;101173.07;;;4.60;49.95
34696;BME280;20918;51.138;17.370;2023-03-01T15:48:15;101175.17;;;4.60;50.01
34696;BME280;20918;51.138;17.370;2023-03-01T15:51:27;101176.09;;;4.62;50.16
34696;BME280;20918;51.138;17.370;2023-03-01T15:54:29;101184.77;;;4.58;50.03
34696;BME280;20918;51.138;17.370;2023-03-01T15:57:30;101190.21;;;4.47;49.95
34696;BME280;20918;51.138;17.370;2023-03-01T16:00:30;101196.59;;;4.35;50.37
34696;BME280;20918;51.138;17.370;2023-03-01T16:03:34;101202.48;;;4.28;50.58
34696;BME280;20918;51.138;17.370;2023-03-01T16:06:34;101200.14;;;4.24;50.80
34696;BME280;20918;51.138;17.370;2023-03-01T16:09:35;101203.85;;;4.18;50.64
34696;BME280;20918;51.138;17.370;2023-03-01T16:12:36;101195.02;;;4.11;51.13
34696;BME280;20918;51.138;17.370;2023-03-01T16:15:39;101199.78;;;4.05;50.98
34696;BME280;20918;51.138;17.370;2023-03-01T16:18:40;101199.08;;;4.02;51.06
34696;BME280;20918;51.138;17.370;2023-03-01T16:21:43;101196.29;;;3.99;51.29
34696;BME280;20918;51.138;17.370;2023-03-01T16:24:46;101194.43;;;3.95;51.34
34696;BME280;20918;51.138;17.370;2023-03-01T16:27:49;101196.27;;;3.91;51.62
34696;BME280;20918;51.138;17.370;2023-03-01T16:30:50;101202.63;;;3.85;51.75
34696;BME280;20918;51.138;17.370;2023-03-01T16:33:52;101202.99;;;3.76;52.08
34696;BME280;20918;51.138;17.370;2023-03-01T16:36:53;101200.23;;;3.62;52.66
34696;BME280;20918;51.138;17.370;2023-03-01T16:39:55;101201.86;;;3.46;52.76
34696;BME280;20918;51.138;17.370;2023-03-01T16:42:56;101202.11;;;3.31;53.55
34696;BME280;20918;51.138;17.370;2023-03-01T16:46:01;101206.98;;;3.14;53.15
34696;BME280;20918;51.138;17.370;2023-03-01T16:49:01;101210.65;;;2.94;53.48
34696;BME280;20918;51.138;17.370;2023-03-01T16:52:03;101219.11;;;2.66;53.75
34696;BME280;20918;51.138;17.370;2023-03-01T16:55:05;101223.22;;;2.40;53.96
34696;BME280;20918;51.138;17.370;2023-03-01T16:58:08;101223.17;;;2.22;54.19
34696;BME280;20918;51.138;17.370;2023-03-01T17:01:13;101218.45;;;2.13;54.53
34696;BME280;20918;51.138;17.370;2023-03-01T17:04:14;101219.33;;;2.03;55.02
34696;BME280;20918;51.138;17.370;2023-03-01T17:07:15;101218.64;;;1.97;55.15
34696;BME280;20918;51.138;17.370;2023-03-01T17:10:15;101213.71;;;1.88;55.39
34696;BME280;20918;51.138;17.370;2023-03-01T17:13:16;101209.59;;;1.80;55.98
34696;BME280;20918;51.138;17.370;2023-03-01T17:16:18;101209.56;;;1.74;56.11
34696;BME280;20918;51.138;17.370;2023-03-01T17:19:19;101210.24;;;1.62;56.13
34696;BME280;20918;51.138;17.370;2023-03-01T17:22:19;101210.80;;;1.42;56.51
34696;BME280;20918;51.138;17.370;2023-03-01T17:25:20;101208.54;;;1.28;57.25
34696;BME280;20918;51.138;17.370;2023-03-01T17:28:21;101209.84;;;1.13;58.15
34696;BME280;20918;51.138;17.370;2023-03-01T17:31:22;101216.70;;;0.99;58.27
34696;BME280;20918;51.138;17.370;2023-03-01T17:34:23;101211.10;;;0.89;58.45
34696;BME280;20918;51.138;17.370;2023-03-01T17:37:24;101213.42;;;0.81;58.56
34696;BME280;20918;51.138;17.370;2023-03-01T17:40:25;101216.73;;;0.77;58.80
34696;BME280;20918;51.138;17.370;2023-03-01T17:43:25;101220.94;;;0.73;58.93